sensor_id;sensor_type;location;lat;lon;timestamp;P1;durP1;ratioP1;P2;durP2;ratioP2
47329;SDS011;33060;50.178;7.570;2023-11-19T00:01:33;0.52;;;0.00;;
47329;SDS011;33060;50.178;7.570;2023-11-19T00:06:27;1.05;;;0.00;;
47329;SDS011;33060;50.178;7.570;2023-11-19T00:08:54;0.25;;;0.00;;
47329;SDS011;33060;50.178;7.570;2023-11-19T00:11:21;0.20;;;0.00;;
47329;SDS011;33060;50.178;7.570;2023-11-19T00:16:14;0.32;;;0.00;;
47329;SDS011;33060;50.178;7.570;2023-11-19T00:18:42;0.30;;;0.00;;
47329;SDS011;33060;50.178;7.570;2023-11-19T00:21:09;0.52;;;0.10;;
47329;SDS011;33060;50.178;7.570;2023-11-19T00:23:37;0.73;;;0.00;;
47329;SDS011;33060;50.178;7.570;2023-11-19T00:26:04;0.68;;;0.00;;
47329;SDS011;33060;50.178;7.570;2023-11-19T00:28:32;0.90;;;0.00;;
47329;SDS011;33060;50.178;7.570;2023-11-19T00:31:00;0.30;;;0.00;;
47329;SDS011;33060;50.178;7.570;2023-11-19T00:33:27;1.65;;;0.00;;
47329;SDS011;33060;50.178;7.570;2023-11-19T00:38:22;0.32;;;0.00;;
47329;SDS011;33060;50.178;7.570;2023-11-19T00:43:15;0.13;;;0.00;;
47329;SDS011;33060;50.178;7.570;2023-11-19T00:45:42;0.17;;;0.00;;
47329;SDS011;33060;50.178;7.570;2023-11-19T00:48:09;0.38;;;0.00;;
47329;SDS011;33060;50.178;7.570;2023-11-19T00:53:04;0.63;;;0.00;;
47329;SDS011;33060;50.178;7.570;2023-11-19T00:55:32;0.20;;;0.00;;
47329;SDS011;33060;50.178;7.570;2023-11-19T00:57:58;0.10;;;0.00;;
47329;SDS011;33060;50.178;7.570;2023-11-19T01:02:53;0.10;;;0.00;;
47329;SDS011;33060;50.178;7.570;2023-11-19T01:05:20;0.17;;;0.00;;
47329;SDS011;33060;50.178;7.570;2023-11-19T01:07:50;0.63;;;0.00;;
47329;SDS011;33060;50.178;7.570;2023-11-19T01:10:20;0.85;;;0.00;;
47329;SDS011;33060;50.178;7.570;2023-11-19T01:12:47;0.43;;;0.00;;
47329;SDS011;33060;50.178;7.570;2023-11-19T01:15:13;0.25;;;0.00;;
47329;SDS011;33060;50.178;7.570;2023-11-19T01:20:18;0.25;;;0.00;;
47329;SDS011;33060;50.178;7.570;2023-11-19T01:22:47;0.32;;;0.00;;
47329;SDS011;33060;50.178;7.570;2023-11-19T01:25:16;0.50;;;0.00;;
47329;SDS011;33060;50.178;7.570;2023-11-19T01:27:43;0.20;;;0.00;;
47329;SDS011;33060;50.178;7.570;2023-11-19T01:30:10;0.30;;;0.00;;
47329;SDS011;33060;50.178;7.570;2023-11-19T01:32:39;0.55;;;0.00;;
47329;SDS011;33060;50.178;7.570;2023-11-19T01:35:07;0.15;;;0.00;;
47329;SDS011;33060;50.178;7.570;2023-11-19T01:37:34;0.32;;;0.00;;
47329;SDS011;33060;50.178;7.570;2023-11-19T01:40:02;0.73;;;0.00;;
47329;SDS011;33060;50.178;7.570;2023-11-19T01:42:38;1.27;;;0.00;;
47329;SDS011;33060;50.178;7.570;2023-11-19T01:45:05;0.20;;;0.00;;
47329;SDS011;33060;50.178;7.570;2023-11-19T01:47:33;0.45;;;0.00;;
47329;SDS011;33060;50.178;7.570;2023-11-19T01:50:01;0.63;;;0.00;;
47329;SDS011;33060;50.178;7.570;2023-11-19T01:52:33;0.43;;;0.00;;
47329;SDS011;33060;50.178;7.570;2023-11-19T01:55:03;0.20;;;0.00;;
47329;SDS011;33060;50.178;7.570;2023-11-19T01:57:31;0.35;;;0.00;;
47329;SDS011;33060;50.178;7.570;2023-11-19T01:59:58;0.63;;;0.00;;
47329;SDS011;33060;50.178;7.570;2023-11-19T02:02:25;2.05;;;0.32;;
47329;SDS011;33060;50.178;7.570;2023-11-19T02:04:53;0.17;;;0.00;;
47329;SDS011;33060;50.178;7.570;2023-11-19T02:07:20;0.15;;;0.00;;
47329;SDS011;33060;50.178;7.570;2023-11-19T02:09:47;0.20;;;0.00;;
47329;SDS011;33060;50.178;7.570;2023-11-19T02:12:13;0.55;;;0.00;;
47329;SDS011;33060;50.178;7.570;2023-11-19T02:14:41;0.30;;;0.00;;
47329;SDS011;33060;50.178;7.570;2023-11-19T02:19:51;0.30;;;0.00;;
47329;SDS011;33060;50.178;7.570;2023-11-19T02:22:17;0.38;;;0.00;;
47329;SDS011;33060;50.178;7.570;2023-11-19T02:24:44;0.60;;;0.00;;
47329;SDS011;33060;50.178;7.570;2023-11-19T02:27:19;0.40;;;0.00;;
47329;SDS011;33060;50.178;7.570;2023-11-19T02:29:57;0.38;;;0.00;;
47329;SDS011;33060;50.178;7.570;2023-11-19T02:32:27;0.75;;;0.00;;
47329;SDS011;33060;50.178;7.570;2023-11-19T02:34:54;0.20;;;0.00;;
47329;SDS011;33060;50.178;7.570;2023-11-19T02:37:32;0.10;;;0.00;;
47329;SDS011;33060;50.178;7.570;2023-11-19T02:39:58;1.05;;;0.00;;
47329;SDS011;33060;50.178;7.570;2023-11-19T02:42:36;0.20;;;0.00;;
47329;SDS011;33060;50.178;7.570;2023-11-19T02:47:33;0.30;;;0.00;;
47329;SDS011;33060;50.178;7.570;2023-11-19T02:50:01;0.40;;;0.00;;
47329;SDS011;33060;50.178;7.570;2023-11-19T02:52:28;0.38;;;0.00;;
47329;SDS011;33060;50.178;7.570;2023-11-19T02:54:55;0.25;;;0.00;;
47329;SDS011;33060;50.178;7.570;2023-11-19T02:57:22;0.10;;;0.00;;
47329;SDS011;33060;50.178;7.570;2023-11-19T03:02:15;0.22;;;0.00;;
47329;SDS011;33060;50.178;7.570;2023-11-19T03:04:44;1.10;;;0.00;;
47329;SDS011;33060;50.178;7.570;2023-11-19T03:07:12;0.00;;;0.00;;
47329;SDS011;33060;50.178;7.570;2023-11-19T03:09:40;0.10;;;0.00;;
47329;SDS011;33060;50.178;7.570;2023-11-19T03:12:07;0.17;;;0.00;;
47329;SDS011;33060;50.178;7.570;2023-11-19T03:14:34;0.20;;;0.00;;
47329;SDS011;33060;50.178;7.570;2023-11-19T03:17:01;0.20;;;0.00;;
47329;SDS011;33060;50.178;7.570;2023-11-19T03:19:28;0.05;;;0.00;;
47329;SDS011;33060;50.178;7.570;2023-11-19T03:24:22;0.00;;;0.00;;
47329;SDS011;33060;50.178;7.570;2023-11-19T03:29:16;0.25;;;0.00;;
47329;SDS011;33060;50.178;7.570;2023-11-19T03:31:43;0.20;;;0.00;;
47329;SDS011;33060;50.178;7.570;2023-11-19T03:34:11;0.15;;;0.00;;
47329;SDS011;33060;50.178;7.570;2023-11-19T03:36:37;0.82;;;0.00;;
47329;SDS011;33060;50.178;7.570;2023-11-19T03:39:04;0.22;;;0.00;;
47329;SDS011;33060;50.178;7.570;2023-11-19T03:41:31;0.38;;;0.00;;
47329;SDS011;33060;50.178;7.570;2023-11-19T03:44:01;0.20;;;0.00;;
47329;SDS011;33060;50.178;7.570;2023-11-19T03:46:27;0.40;;;0.00;;
47329;SDS011;33060;50.178;7.570;2023-11-19T03:48:56;0.30;;;0.00;;
47329;SDS011;33060;50.178;7.570;2023-11-19T03:51:22;0.30;;;0.00;;
47329;SDS011;33060;50.178;7.570;2023-11-19T03:53:49;0.47;;;0.00;;
47329;SDS011;33060;50.178;7.570;2023-11-19T03:56:16;0.40;;;0.00;;
47329;SDS011;33060;50.178;7.570;2023-11-19T03:58:43;0.30;;;0.00;;
47329;SDS011;33060;50.178;7.570;2023-11-19T04:01:12;0.25;;;0.00;;
47329;SDS011;33060;50.178;7.570;2023-11-19T04:03:42;0.38;;;0.00;;
47329;SDS011;33060;50.178;7.570;2023-11-19T04:06:12;0.40;;;0.00;;
47329;SDS011;33060;50.178;7.570;2023-11-19T04:08:39;0.50;;;0.00;;
47329;SDS011;33060;50.178;7.570;2023-11-19T04:11:05;0.30;;;0.00;;
47329;SDS011;33060;50.178;7.570;2023-11-19T04:13:32;0.70;;;0.00;;
47329;SDS011;33060;50.178;7.570;2023-11-19T04:15:59;0.35;;;0.00;;
47329;SDS011;33060;50.178;7.570;2023-11-19T04:18:26;0.60;;;0.00;;
47329;SDS011;33060;50.178;7.570;2023-11-19T04:20:53;0.55;;;0.00;;
47329;SDS011;33060;50.178;7.570;2023-11-19T04:23:20;0.40;;;0.00;;
47329;SDS011;33060;50.178;7.570;2023-11-19T04:25:47;0.30;;;0.00;;
47329;SDS011;33060;50.178;7.570;2023-11-19T04:28:13;0.30;;;0.00;;
47329;SDS011;33060;50.178;7.570;2023-11-19T04:30:40;1.58;;;0.00;;
47329;SDS011;33060;50.178;7.570;2023-11-19T04:33:06;0.50;;;0.00;;
47329;SDS011;33060;50.178;7.570;2023-11-19T04:35:33;0.40;;;0.00;;
47329;SDS011;33060;50.178;7.570;2023-11-19T04:40:26;0.65;;;0.00;;
47329;SDS011;33060;50.178;7.570;2023-11-19T04:45:20;0.50;;;0.08;;
47329;SDS011;33060;50.178;7.570;2023-11-19T04:47:46;0.90;;;0.10;;
47329;SDS011;33060;50.178;7.570;2023-11-19T04:52:40;1.05;;;0.10;;
47329;SDS011;33060;50.178;7.570;2023-11-19T04:55:07;1.60;;;0.30;;
47329;SDS011;33060;50.178;7.570;2023-11-19T04:57:34;2.33;;;0.60;;
47329;SDS011;33060;50.178;7.570;2023-11-19T05:00:00;2.03;;;0.30;;
47329;SDS011;33060;50.178;7.570;2023-11-19T05:04:54;2.30;;;0.40;;
47329;SDS011;33060;50.178;7.570;2023-11-19T05:07:21;1.88;;;0.20;;
47329;SDS011;33060;50.178;7.570;2023-11-19T05:12:15;2.05;;;0.52;;
47329;SDS011;33060;50.178;7.570;2023-11-19T05:14:41;1.70;;;0.32;;
47329;SDS011;33060;50.178;7.570;2023-11-19T05:17:16;1.80;;;0.52;;
47329;SDS011;33060;50.178;7.570;2023-11-19T05:19:45;2.10;;;0.50;;
47329;SDS011;33060;50.178;7.570;2023-11-19T05:22:12;1.98;;;0.88;;
47329;SDS011;33060;50.178;7.570;2023-11-19T05:24:39;2.38;;;0.82;;
47329;SDS011;33060;50.178;7.570;2023-11-19T05:27:07;1.88;;;0.57;;
47329;SDS011;33060;50.178;7.570;2023-11-19T05:29:34;3.65;;;0.80;;
47329;SDS011;33060;50.178;7.570;2023-11-19T05:32:01;3.10;;;0.63;;
47329;SDS011;33060;50.178;7.570;2023-11-19T05:34:27;1.90;;;0.50;;
47329;SDS011;33060;50.178;7.570;2023-11-19T05:36:55;2.03;;;0.32;;
47329;SDS011;33060;50.178;7.570;2023-11-19T05:41:48;2.10;;;0.50;;
47329;SDS011;33060;50.178;7.570;2023-11-19T05:44:15;1.88;;;0.68;;
47329;SDS011;33060;50.178;7.570;2023-11-19T05:46:43;2.33;;;0.70;;
47329;SDS011;33060;50.178;7.570;2023-11-19T05:49:10;2.47;;;0.68;;
47329;SDS011;33060;50.178;7.570;2023-11-19T05:51:39;2.13;;;0.80;;
47329;SDS011;33060;50.178;7.570;2023-11-19T05:54:06;2.33;;;0.60;;
47329;SDS011;33060;50.178;7.570;2023-11-19T05:56:34;2.45;;;0.57;;
47329;SDS011;33060;50.178;7.570;2023-11-19T05:59:01;2.03;;;0.40;;
47329;SDS011;33060;50.178;7.570;2023-11-19T06:01:29;2.70;;;0.82;;
47329;SDS011;33060;50.178;7.570;2023-11-19T06:06:23;3.80;;;0.82;;
47329;SDS011;33060;50.178;7.570;2023-11-19T06:08:50;2.47;;;0.57;;
47329;SDS011;33060;50.178;7.570;2023-11-19T06:13:46;3.13;;;0.40;;
47329;SDS011;33060;50.178;7.570;2023-11-19T06:16:16;1.67;;;0.30;;
47329;SDS011;33060;50.178;7.570;2023-11-19T06:18:43;2.92;;;0.20;;
47329;SDS011;33060;50.178;7.570;2023-11-19T06:21:11;1.92;;;0.35;;
47329;SDS011;33060;50.178;7.570;2023-11-19T06:23:41;2.30;;;0.50;;
47329;SDS011;33060;50.178;7.570;2023-11-19T06:26:08;2.67;;;0.40;;
47329;SDS011;33060;50.178;7.570;2023-11-19T06:31:03;2.78;;;0.30;;
47329;SDS011;33060;50.178;7.570;2023-11-19T06:33:30;2.47;;;0.32;;
47329;SDS011;33060;50.178;7.570;2023-11-19T06:35:56;2.63;;;0.30;;
47329;SDS011;33060;50.178;7.570;2023-11-19T06:38:23;2.50;;;0.45;;
47329;SDS011;33060;50.178;7.570;2023-11-19T06:43:20;3.35;;;0.50;;
47329;SDS011;33060;50.178;7.570;2023-11-19T06:45:48;3.80;;;0.80;;
47329;SDS011;33060;50.178;7.570;2023-11-19T06:50:42;2.75;;;0.30;;
47329;SDS011;33060;50.178;7.570;2023-11-19T06:53:08;5.88;;;0.43;;
47329;SDS011;33060;50.178;7.570;2023-11-19T06:55:37;2.60;;;0.60;;
47329;SDS011;33060;50.178;7.570;2023-11-19T07:00:30;3.55;;;0.50;;
47329;SDS011;33060;50.178;7.570;2023-11-19T07:02:59;2.63;;;0.30;;
47329;SDS011;33060;50.178;7.570;2023-11-19T07:05:26;2.45;;;0.47;;
47329;SDS011;33060;50.178;7.570;2023-11-19T07:07:54;2.50;;;0.45;;
47329;SDS011;33060;50.178;7.570;2023-11-19T07:10:22;1.70;;;0.40;;
47329;SDS011;33060;50.178;7.570;2023-11-19T07:12:48;1.98;;;0.30;;
47329;SDS011;33060;50.178;7.570;2023-11-19T07:15:16;2.85;;;1.00;;
47329;SDS011;33060;50.178;7.570;2023-11-19T07:17:44;5.95;;;1.10;;
47329;SDS011;33060;50.178;7.570;2023-11-19T07:20:11;2.88;;;0.70;;
47329;SDS011;33060;50.178;7.570;2023-11-19T07:22:42;2.80;;;0.60;;
47329;SDS011;33060;50.178;7.570;2023-11-19T07:25:14;3.40;;;0.35;;
47329;SDS011;33060;50.178;7.570;2023-11-19T07:27:41;2.65;;;0.70;;
47329;SDS011;33060;50.178;7.570;2023-11-19T07:30:09;2.22;;;0.40;;
47329;SDS011;33060;50.178;7.570;2023-11-19T07:32:36;2.22;;;0.55;;
47329;SDS011;33060;50.178;7.570;2023-11-19T07:35:05;3.63;;;0.50;;
47329;SDS011;33060;50.178;7.570;2023-11-19T07:37:33;2.00;;;0.45;;
47329;SDS011;33060;50.178;7.570;2023-11-19T07:40:00;2.30;;;0.50;;
47329;SDS011;33060;50.178;7.570;2023-11-19T07:44:53;3.97;;;0.50;;
47329;SDS011;33060;50.178;7.570;2023-11-19T07:47:22;3.20;;;0.50;;
47329;SDS011;33060;50.178;7.570;2023-11-19T07:49:50;2.10;;;0.40;;
47329;SDS011;33060;50.178;7.570;2023-11-19T07:52:17;2.05;;;0.52;;
47329;SDS011;33060;50.178;7.570;2023-11-19T07:54:46;2.53;;;0.40;;
47329;SDS011;33060;50.178;7.570;2023-11-19T07:57:13;3.33;;;0.60;;
47329;SDS011;33060;50.178;7.570;2023-11-19T08:02:06;3.40;;;0.38;;
47329;SDS011;33060;50.178;7.570;2023-11-19T08:07:00;2.88;;;0.70;;
47329;SDS011;33060;50.178;7.570;2023-11-19T08:09:27;4.93;;;0.60;;
47329;SDS011;33060;50.178;7.570;2023-11-19T08:11:54;4.75;;;0.88;;
47329;SDS011;33060;50.178;7.570;2023-11-19T08:14:22;3.67;;;0.60;;
47329;SDS011;33060;50.178;7.570;2023-11-19T08:16:50;5.47;;;0.82;;
47329;SDS011;33060;50.178;7.570;2023-11-19T08:21:44;5.25;;;0.70;;
47329;SDS011;33060;50.178;7.570;2023-11-19T08:24:11;6.57;;;0.80;;
47329;SDS011;33060;50.178;7.570;2023-11-19T08:29:04;5.70;;;1.30;;
47329;SDS011;33060;50.178;7.570;2023-11-19T08:31:31;4.82;;;0.82;;
47329;SDS011;33060;50.178;7.570;2023-11-19T08:33:57;6.10;;;2.50;;
47329;SDS011;33060;50.178;7.570;2023-11-19T08:36:24;5.93;;;2.15;;
47329;SDS011;33060;50.178;7.570;2023-11-19T08:38:51;6.57;;;1.65;;
47329;SDS011;33060;50.178;7.570;2023-11-19T08:43:45;8.68;;;2.63;;
47329;SDS011;33060;50.178;7.570;2023-11-19T08:46:12;9.07;;;2.08;;
47329;SDS011;33060;50.178;7.570;2023-11-19T08:48:40;6.70;;;1.40;;
47329;SDS011;33060;50.178;7.570;2023-11-19T08:51:07;6.03;;;1.02;;
47329;SDS011;33060;50.178;7.570;2023-11-19T08:56:00;8.05;;;1.55;;
47329;SDS011;33060;50.178;7.570;2023-11-19T08:58:29;7.65;;;1.70;;
47329;SDS011;33060;50.178;7.570;2023-11-19T09:00:57;7.40;;;1.40;;
47329;SDS011;33060;50.178;7.570;2023-11-19T09:03:24;8.07;;;0.95;;
47329;SDS011;33060;50.178;7.570;2023-11-19T09:05:56;8.00;;;1.40;;
47329;SDS011;33060;50.178;7.570;2023-11-19T09:10:50;6.68;;;0.93;;
47329;SDS011;33060;50.178;7.570;2023-11-19T09:13:17;6.50;;;1.15;;
47329;SDS011;33060;50.178;7.570;2023-11-19T09:18:10;4.38;;;0.93;;
47329;SDS011;33060;50.178;7.570;2023-11-19T09:20:37;6.65;;;1.88;;
47329;SDS011;33060;50.178;7.570;2023-11-19T09:23:05;9.60;;;1.42;;
47329;SDS011;33060;50.178;7.570;2023-11-19T09:25:33;7.05;;;1.30;;
47329;SDS011;33060;50.178;7.570;2023-11-19T09:28:03;7.45;;;1.48;;
47329;SDS011;33060;50.178;7.570;2023-11-19T09:30:30;6.25;;;1.60;;
47329;SDS011;33060;50.178;7.570;2023-11-19T09:33:00;7.85;;;1.55;;
47329;SDS011;33060;50.178;7.570;2023-11-19T09:35:27;8.68;;;1.40;;
47329;SDS011;33060;50.178;7.570;2023-11-19T09:37:53;5.97;;;1.70;;
47329;SDS011;33060;50.178;7.570;2023-11-19T09:40:20;11.20;;;2.50;;
47329;SDS011;33060;50.178;7.570;2023-11-19T09:42:47;7.25;;;1.40;;
47329;SDS011;33060;50.178;7.570;2023-11-19T09:45:15;9.23;;;1.38;;
47329;SDS011;33060;50.178;7.570;2023-11-19T09:47:46;6.55;;;1.23;;
47329;SDS011;33060;50.178;7.570;2023-11-19T09:50:17;7.40;;;2.10;;
47329;SDS011;33060;50.178;7.570;2023-11-19T09:52:48;6.47;;;1.40;;
47329;SDS011;33060;50.178;7.570;2023-11-19T09:55:15;14.50;;;2.38;;
47329;SDS011;33060;50.178;7.570;2023-11-19T09:57:42;6.88;;;1.48;;
47329;SDS011;33060;50.178;7.570;2023-11-19T10:00:11;10.15;;;2.10;;
47329;SDS011;33060;50.178;7.570;2023-11-19T10:02:41;9.18;;;1.95;;
47329;SDS011;33060;50.178;7.570;2023-11-19T10:05:13;8.75;;;1.83;;
47329;SDS011;33060;50.178;7.570;2023-11-19T10:07:41;9.48;;;1.30;;
47329;SDS011;33060;50.178;7.570;2023-11-19T10:10:09;9.10;;;1.60;;
47329;SDS011;33060;50.178;7.570;2023-11-19T10:12:40;13.15;;;1.98;;
47329;SDS011;33060;50.178;7.570;2023-11-19T10:15:24;11.73;;;2.17;;
47329;SDS011;33060;50.178;7.570;2023-11-19T10:17:56;6.20;;;1.45;;
47329;SDS011;33060;50.178;7.570;2023-11-19T10:20:24;9.80;;;1.92;;
47329;SDS011;33060;50.178;7.570;2023-11-19T10:22:54;16.25;;;2.95;;
47329;SDS011;33060;50.178;7.570;2023-11-19T10:25:24;11.25;;;3.40;;
47329;SDS011;33060;50.178;7.570;2023-11-19T10:27:53;9.10;;;1.77;;
47329;SDS011;33060;50.178;7.570;2023-11-19T10:30:24;13.60;;;5.43;;
47329;SDS011;33060;50.178;7.570;2023-11-19T10:33:03;10.60;;;1.77;;
47329;SDS011;33060;50.178;7.570;2023-11-19T10:35:36;13.88;;;4.10;;
47329;SDS011;33060;50.178;7.570;2023-11-19T10:38:28;12.45;;;2.92;;
47329;SDS011;33060;50.178;7.570;2023-11-19T10:40:55;9.88;;;2.17;;
47329;SDS011;33060;50.178;7.570;2023-11-19T10:43:22;10.85;;;1.70;;
47329;SDS011;33060;50.178;7.570;2023-11-19T10:45:50;9.77;;;1.65;;
47329;SDS011;33060;50.178;7.570;2023-11-19T10:48:18;7.53;;;1.52;;
47329;SDS011;33060;50.178;7.570;2023-11-19T10:50:46;10.18;;;1.75;;
47329;SDS011;33060;50.178;7.570;2023-11-19T10:53:19;9.45;;;2.00;;
47329;SDS011;33060;50.178;7.570;2023-11-19T10:55:47;10.00;;;2.08;;
47329;SDS011;33060;50.178;7.570;2023-11-19T10:58:15;7.85;;;2.88;;
47329;SDS011;33060;50.178;7.570;2023-11-19T11:00:47;7.72;;;1.95;;
47329;SDS011;33060;50.178;7.570;2023-11-19T11:03:18;9.88;;;1.67;;
47329;SDS011;33060;50.178;7.570;2023-11-19T11:05:46;6.72;;;1.42;;
47329;SDS011;33060;50.178;7.570;2023-11-19T11:08:14;7.18;;;1.70;;
47329;SDS011;33060;50.178;7.570;2023-11-19T11:10:54;12.43;;;1.70;;
47329;SDS011;33060;50.178;7.570;2023-11-19T11:13:24;7.32;;;1.67;;
47329;SDS011;33060;50.178;7.570;2023-11-19T11:15:54;9.38;;;1.73;;
47329;SDS011;33060;50.178;7.570;2023-11-19T11:18:24;10.80;;;1.83;;
47329;SDS011;33060;50.178;7.570;2023-11-19T11:20:57;9.70;;;1.42;;
47329;SDS011;33060;50.178;7.570;2023-11-19T11:31:48;8.85;;;1.45;;
47329;SDS011;33060;50.178;7.570;2023-11-19T11:39:37;5.05;;;1.30;;
47329;SDS011;33060;50.178;7.570;2023-11-19T11:50:16;4.72;;;1.00;;
47329;SDS011;33060;50.178;7.570;2023-11-19T11:55:27;9.65;;;2.20;;
47329;SDS011;33060;50.178;7.570;2023-11-19T11:57:55;3.72;;;1.10;;
47329;SDS011;33060;50.178;7.570;2023-11-19T12:00:22;7.25;;;1.67;;
47329;SDS011;33060;50.178;7.570;2023-11-19T12:02:50;9.77;;;1.45;;
47329;SDS011;33060;50.178;7.570;2023-11-19T12:05:17;4.70;;;1.02;;
47329;SDS011;33060;50.178;7.570;2023-11-19T12:07:54;8.43;;;1.80;;
47329;SDS011;33060;50.178;7.570;2023-11-19T12:10:21;7.60;;;1.20;;
47329;SDS011;33060;50.178;7.570;2023-11-19T12:12:53;5.65;;;0.98;;
47329;SDS011;33060;50.178;7.570;2023-11-19T12:15:20;8.93;;;1.55;;
47329;SDS011;33060;50.178;7.570;2023-11-19T12:17:51;4.40;;;1.30;;
47329;SDS011;33060;50.178;7.570;2023-11-19T12:20:19;7.07;;;0.82;;
47329;SDS011;33060;50.178;7.570;2023-11-19T12:22:52;8.30;;;1.60;;
47329;SDS011;33060;50.178;7.570;2023-11-19T12:25:19;7.72;;;1.70;;
47329;SDS011;33060;50.178;7.570;2023-11-19T12:27:47;5.53;;;1.38;;
47329;SDS011;33060;50.178;7.570;2023-11-19T12:30:25;7.80;;;0.90;;
47329;SDS011;33060;50.178;7.570;2023-11-19T12:32:53;6.43;;;0.98;;
47329;SDS011;33060;50.178;7.570;2023-11-19T12:35:21;7.47;;;1.38;;
47329;SDS011;33060;50.178;7.570;2023-11-19T12:37:48;6.47;;;0.95;;
47329;SDS011;33060;50.178;7.570;2023-11-19T12:40:21;6.20;;;0.90;;
47329;SDS011;33060;50.178;7.570;2023-11-19T12:42:49;9.15;;;0.90;;
47329;SDS011;33060;50.178;7.570;2023-11-19T12:45:17;6.03;;;0.80;;
47329;SDS011;33060;50.178;7.570;2023-11-19T12:47:46;6.53;;;1.40;;
47329;SDS011;33060;50.178;7.570;2023-11-19T12:50:14;5.00;;;1.20;;
47329;SDS011;33060;50.178;7.570;2023-11-19T12:52:41;6.97;;;1.50;;
47329;SDS011;33060;50.178;7.570;2023-11-19T12:55:24;5.95;;;1.42;;
47329;SDS011;33060;50.178;7.570;2023-11-19T12:57:56;6.88;;;2.83;;
47329;SDS011;33060;50.178;7.570;2023-11-19T13:00:25;6.53;;;1.40;;
47329;SDS011;33060;50.178;7.570;2023-11-19T13:02:54;9.65;;;1.15;;
47329;SDS011;33060;50.178;7.570;2023-11-19T13:05:23;6.95;;;1.00;;
47329;SDS011;33060;50.178;7.570;2023-11-19T13:10:29;5.82;;;1.35;;
47329;SDS011;33060;50.178;7.570;2023-11-19T13:13:02;10.63;;;2.22;;
47329;SDS011;33060;50.178;7.570;2023-11-19T13:15:32;5.65;;;1.38;;
47329;SDS011;33060;50.178;7.570;2023-11-19T13:17:59;5.40;;;1.15;;
47329;SDS011;33060;50.178;7.570;2023-11-19T13:20:26;8.63;;;1.50;;
47329;SDS011;33060;50.178;7.570;2023-11-19T13:22:56;7.13;;;1.17;;
47329;SDS011;33060;50.178;7.570;2023-11-19T13:25:30;7.07;;;1.23;;
47329;SDS011;33060;50.178;7.570;2023-11-19T13:27:58;8.77;;;1.15;;
47329;SDS011;33060;50.178;7.570;2023-11-19T13:30:26;5.70;;;1.30;;
47329;SDS011;33060;50.178;7.570;2023-11-19T13:32:53;11.48;;;1.25;;
47329;SDS011;33060;50.178;7.570;2023-11-19T13:35:23;8.43;;;1.20;;
47329;SDS011;33060;50.178;7.570;2023-11-19T13:37:50;8.60;;;0.85;;
47329;SDS011;33060;50.178;7.570;2023-11-19T13:40:18;7.90;;;1.65;;
47329;SDS011;33060;50.178;7.570;2023-11-19T13:42:46;9.80;;;1.30;;
47329;SDS011;33060;50.178;7.570;2023-11-19T13:45:13;7.20;;;1.42;;
47329;SDS011;33060;50.178;7.570;2023-11-19T13:47:42;7.28;;;1.10;;
47329;SDS011;33060;50.178;7.570;2023-11-19T13:50:10;8.75;;;1.92;;
47329;SDS011;33060;50.178;7.570;2023-11-19T13:52:38;8.13;;;1.30;;
47329;SDS011;33060;50.178;7.570;2023-11-19T13:55:06;10.70;;;1.50;;
47329;SDS011;33060;50.178;7.570;2023-11-19T13:57:35;9.18;;;1.45;;
47329;SDS011;33060;50.178;7.570;2023-11-19T14:00:02;6.25;;;1.17;;
47329;SDS011;33060;50.178;7.570;2023-11-19T14:02:34;11.55;;;2.42;;
47329;SDS011;33060;50.178;7.570;2023-11-19T14:05:01;7.72;;;1.35;;
47329;SDS011;33060;50.178;7.570;2023-11-19T14:07:27;7.25;;;1.50;;
47329;SDS011;33060;50.178;7.570;2023-11-19T14:09:54;7.70;;;1.55;;
47329;SDS011;33060;50.178;7.570;2023-11-19T14:14:48;6.03;;;0.90;;
47329;SDS011;33060;50.178;7.570;2023-11-19T14:17:15;7.25;;;1.42;;
47329;SDS011;33060;50.178;7.570;2023-11-19T14:19:42;8.70;;;1.35;;
47329;SDS011;33060;50.178;7.570;2023-11-19T14:22:09;5.90;;;1.27;;
47329;SDS011;33060;50.178;7.570;2023-11-19T14:24:36;7.40;;;1.33;;
47329;SDS011;33060;50.178;7.570;2023-11-19T14:27:04;9.40;;;1.35;;
47329;SDS011;33060;50.178;7.570;2023-11-19T14:29:30;5.80;;;1.08;;
47329;SDS011;33060;50.178;7.570;2023-11-19T14:31:57;6.10;;;0.80;;
47329;SDS011;33060;50.178;7.570;2023-11-19T14:34:25;5.43;;;1.17;;
47329;SDS011;33060;50.178;7.570;2023-11-19T14:36:52;7.70;;;1.42;;
47329;SDS011;33060;50.178;7.570;2023-11-19T14:39:20;6.07;;;1.40;;
47329;SDS011;33060;50.178;7.570;2023-11-19T14:41:47;8.60;;;1.63;;
47329;SDS011;33060;50.178;7.570;2023-11-19T14:46:40;10.23;;;1.15;;
47329;SDS011;33060;50.178;7.570;2023-11-19T14:49:08;4.72;;;1.20;;
47329;SDS011;33060;50.178;7.570;2023-11-19T14:51:37;6.65;;;1.60;;
47329;SDS011;33060;50.178;7.570;2023-11-19T14:54:04;11.82;;;1.35;;
47329;SDS011;33060;50.178;7.570;2023-11-19T14:56:32;7.30;;;1.55;;
47329;SDS011;33060;50.178;7.570;2023-11-19T14:58:58;7.68;;;1.63;;
47329;SDS011;33060;50.178;7.570;2023-11-19T15:03:52;7.10;;;1.33;;
47329;SDS011;33060;50.178;7.570;2023-11-19T15:06:24;6.88;;;1.40;;
47329;SDS011;33060;50.178;7.570;2023-11-19T15:08:53;7.18;;;1.45;;
47329;SDS011;33060;50.178;7.570;2023-11-19T15:11:21;12.25;;;1.95;;
47329;SDS011;33060;50.178;7.570;2023-11-19T15:13:47;6.50;;;1.55;;
47329;SDS011;33060;50.178;7.570;2023-11-19T15:16:15;7.05;;;1.17;;
47329;SDS011;33060;50.178;7.570;2023-11-19T15:18:48;11.45;;;2.38;;
47329;SDS011;33060;50.178;7.570;2023-11-19T15:23:41;9.75;;;1.70;;
47329;SDS011;33060;50.178;7.570;2023-11-19T15:28:37;7.80;;;1.60;;
47329;SDS011;33060;50.178;7.570;2023-11-19T15:31:03;5.60;;;1.25;;
47329;SDS011;33060;50.178;7.570;2023-11-19T15:33:30;7.78;;;1.50;;
47329;SDS011;33060;50.178;7.570;2023-11-19T15:35:57;7.32;;;1.23;;
47329;SDS011;33060;50.178;7.570;2023-11-19T15:38:26;10.75;;;2.40;;
47329;SDS011;33060;50.178;7.570;2023-11-19T15:40:53;11.57;;;2.22;;
47329;SDS011;33060;50.178;7.570;2023-11-19T15:43:21;9.98;;;2.03;;
47329;SDS011;33060;50.178;7.570;2023-11-19T15:48:14;6.55;;;1.42;;
47329;SDS011;33060;50.178;7.570;2023-11-19T15:53:10;11.77;;;2.67;;
47329;SDS011;33060;50.178;7.570;2023-11-19T15:55:38;7.53;;;1.38;;
47329;SDS011;33060;50.178;7.570;2023-11-19T16:00:32;9.90;;;1.60;;
47329;SDS011;33060;50.178;7.570;2023-11-19T16:02:59;9.30;;;1.70;;
47329;SDS011;33060;50.178;7.570;2023-11-19T16:05:26;12.80;;;2.05;;
47329;SDS011;33060;50.178;7.570;2023-11-19T16:10:20;6.57;;;1.60;;
47329;SDS011;33060;50.178;7.570;2023-11-19T16:12:51;7.70;;;2.28;;
47329;SDS011;33060;50.178;7.570;2023-11-19T16:15:18;8.15;;;1.58;;
47329;SDS011;33060;50.178;7.570;2023-11-19T16:17:49;9.07;;;1.95;;
47329;SDS011;33060;50.178;7.570;2023-11-19T16:20:16;6.47;;;1.63;;
47329;SDS011;33060;50.178;7.570;2023-11-19T16:22:43;9.43;;;2.97;;
47329;SDS011;33060;50.178;7.570;2023-11-19T16:25:09;8.93;;;1.65;;
47329;SDS011;33060;50.178;7.570;2023-11-19T16:27:36;7.55;;;1.42;;
47329;SDS011;33060;50.178;7.570;2023-11-19T16:30:06;8.63;;;2.17;;
47329;SDS011;33060;50.178;7.570;2023-11-19T16:32:33;6.63;;;1.30;;
47329;SDS011;33060;50.178;7.570;2023-11-19T16:35:14;8.52;;;1.45;;
47329;SDS011;33060;50.178;7.570;2023-11-19T16:37:40;7.05;;;1.45;;
47329;SDS011;33060;50.178;7.570;2023-11-19T16:40:08;7.22;;;2.72;;
47329;SDS011;33060;50.178;7.570;2023-11-19T16:42:38;7.90;;;2.00;;
47329;SDS011;33060;50.178;7.570;2023-11-19T16:45:06;8.35;;;1.33;;
47329;SDS011;33060;50.178;7.570;2023-11-19T16:47:33;8.02;;;2.28;;
47329;SDS011;33060;50.178;7.570;2023-11-19T16:49:59;9.20;;;1.85;;
47329;SDS011;33060;50.178;7.570;2023-11-19T16:54:56;8.52;;;1.35;;
47329;SDS011;33060;50.178;7.570;2023-11-19T16:57:22;7.32;;;1.63;;
47329;SDS011;33060;50.178;7.570;2023-11-19T16:59:49;7.70;;;1.50;;
47329;SDS011;33060;50.178;7.570;2023-11-19T17:02:22;10.93;;;1.10;;
47329;SDS011;33060;50.178;7.570;2023-11-19T17:04:52;11.45;;;2.17;;